createdAt,value
2023-03-23T15:57:53.609Z,35.46
2023-03-23T16:00:20.777Z,36.28
2023-03-23T16:03:07.626Z,36.08
2023-03-23T16:05:34.212Z,36.37
2023-03-23T16:08:00.854Z,35.93
2023-03-23T16:10:27.889Z,36.58
2023-03-23T16:12:54.460Z,36.80
2023-03-23T16:15:21.306Z,36.77
2023-03-23T16:17:48.043Z,38.18
2023-03-23T16:20:19.378Z,38.73
2023-03-23T16:22:46.154Z,38.53
2023-03-23T16:25:12.890Z,39.09
2023-03-23T16:27:40.088Z,39.26
2023-03-23T16:30:23.291Z,39.56
2023-03-23T16:32:49.815Z,39.67
2023-03-23T16:35:18.209Z,39.92
2023-03-23T16:37:45.665Z,40.01
2023-03-23T16:40:12.429Z,40.01
2023-03-23T16:42:38.886Z,40.05
2023-03-23T16:45:06.193Z,40.59
2023-03-23T16:47:33.145Z,40.40
2023-03-23T16:49:59.767Z,41.24
2023-03-23T16:52:27.378Z,41.24
2023-03-23T16:54:54.011Z,41.43
2023-03-23T16:57:20.872Z,41.78
2023-03-23T16:59:50.486Z,41.20
2023-03-23T17:02:17.086Z,41.49
2023-03-23T17:04:44.429Z,42.24
2023-03-23T17:07:11.469Z,41.93
2023-03-23T17:09:38.029Z,42.25
2023-03-23T17:12:04.714Z,41.95
2023-03-23T17:14:31.671Z,42.28
2023-03-23T17:16:58.409Z,42.05
2023-03-23T17:19:24.997Z,42.42
2023-03-23T17:21:51.752Z,42.65
2023-03-23T17:24:18.783Z,42.93
2023-03-23T17:26:45.355Z,43.09
2023-03-23T17:29:11.820Z,43.01
2023-03-23T17:31:38.475Z,43.49
2023-03-23T17:34:05.031Z,43.44
2023-03-23T17:36:31.587Z,43.64
2023-03-23T17:38:58.136Z,43.49
2023-03-23T17:41:24.614Z,43.71
2023-03-23T17:43:51.156Z,43.82
2023-03-23T17:46:18.260Z,43.89
2023-03-23T17:48:44.844Z,44.12
2023-03-23T17:51:11.416Z,44.13
2023-03-23T17:53:37.819Z,43.91
2023-03-23T17:56:04.681Z,43.86
2023-03-23T17:58:31.301Z,44.56
2023-03-23T18:00:57.861Z,44.32
2023-03-23T18:03:24.828Z,44.52
2023-03-23T18:09:57.067Z,44.86
2023-03-23T18:12:23.631Z,45.13
2023-03-23T18:14:50.187Z,45.38
2023-03-23T18:17:16.697Z,45.51
2023-03-23T18:19:44.138Z,45.53
2023-03-23T18:22:10.906Z,45.06
2023-03-23T18:24:37.357Z,45.59
2023-03-23T18:27:03.872Z,44.88
2023-03-23T18:29:30.506Z,45.19
2023-03-23T18:31:57.228Z,45.58
2023-03-23T18:34:24.528Z,45.61
2023-03-23T18:36:51.924Z,45.68
2023-03-23T18:39:18.507Z,46.18
2023-03-23T18:41:45.057Z,46.46
2023-03-23T18:44:11.540Z,46.61
2023-03-23T18:46:38.149Z,46.31
2023-03-23T18:49:04.739Z,46.36
2023-03-23T18:51:31.295Z,46.54
2023-03-23T18:53:57.802Z,46.43
2023-03-23T18:56:24.403Z,46.73
2023-03-23T18:58:51.477Z,46.57
2023-03-23T19:01:17.985Z,47.04
2023-03-23T19:03:45.378Z,47.15
2023-03-23T19:06:15.571Z,47.14
2023-03-23T19:08:45.495Z,47.39
2023-03-23T19:11:12.311Z,47.09
2023-03-23T19:13:42.168Z,47.58
2023-03-23T19:16:14.450Z,47.44
2023-03-23T19:18:42.087Z,47.14
2023-03-23T19:21:15.053Z,47.57
2023-03-23T19:23:43.572Z,47.85
2023-03-23T19:26:10.793Z,48.02
2023-03-23T19:50:42.580Z,49.25
2023-03-23T19:53:29.385Z,51.03
2023-03-23T19:55:58.109Z,50.09
2023-03-23T22:15:23.936Z,53.65
2023-03-23T22:22:08.456Z,53.80
2023-03-23T22:38:37.494Z,54.28
2023-03-23T22:41:06.910Z,54.89
2023-03-23T22:43:36.747Z,55.18
2023-03-23T22:46:03.711Z,54.78
2023-03-23T22:48:30.251Z,55.14
2023-03-23T22:50:58.474Z,55.72
2023-03-23T22:53:24.939Z,55.37
2023-03-23T22:55:51.759Z,55.41
2023-03-23T22:58:18.467Z,55.36
2023-03-23T23:00:46.270Z,55.91
2023-03-23T23:03:12.898Z,55.93
2023-03-23T23:05:46.624Z,55.88
2023-03-23T23:08:15.920Z,57.07
2023-03-23T23:10:46.340Z,56.84
2023-03-23T23:13:13.112Z,56.57
2023-03-23T23:15:43.898Z,56.66
2023-03-23T23:18:10.487Z,56.57
2023-03-23T23:20:37.024Z,56.71
2023-03-23T23:23:03.574Z,56.38
2023-03-23T23:25:30.668Z,56.48
2023-03-23T23:27:58.445Z,56.55
2023-03-23T23:30:25.710Z,56.36
2023-03-23T23:32:52.266Z,56.62
2023-03-23T23:35:19.442Z,56.83
2023-03-23T23:37:45.901Z,57.70
2023-03-23T23:40:15.249Z,57.92
2023-03-23T23:42:45.442Z,57.31
2023-03-23T23:45:11.961Z,57.11
2023-03-23T23:47:38.562Z,57.26
2023-03-23T23:50:06.498Z,56.92
2023-03-23T23:52:33.399Z,57.41
2023-03-23T23:54:59.843Z,57.84
2023-03-23T23:57:26.358Z,57.49
2023-03-23T23:59:52.874Z,58.90
